sensor_id;sensor_type;location;lat;lon;timestamp;temperature;humidity
52451;DHT22;38366;53.176;6.540;2023-02-23T00:01:27;7.60;99.90
52451;DHT22;38366;53.176;6.540;2023-02-23T00:03:57;7.70;99.90
52451;DHT22;38366;53.176;6.540;2023-02-23T00:06:25;7.70;99.90
52451;DHT22;38366;53.176;6.540;2023-02-23T00:08:51;7.70;99.90
52451;DHT22;38366;53.176;6.540;2023-02-23T00:11:18;7.70;99.90
52451;DHT22;38366;53.176;6.540;2023-02-23T00:13:46;7.70;99.90
52451;DHT22;38366;53.176;6.540;2023-02-23T00:16:19;7.60;99.90
52451;DHT22;38366;53.176;6.540;2023-02-23T00:18:48;7.70;99.90
52451;DHT22;38366;53.176;6.540;2023-02-23T00:21:20;7.70;99.90
52451;DHT22;38366;53.176;6.540;2023-02-23T00:26:14;7.70;99.90
52451;DHT22;38366;53.176;6.540;2023-02-23T00:28:41;7.60;99.90
52451;DHT22;38366;53.176;6.540;2023-02-23T00:31:08;7.60;99.90
52451;DHT22;38366;53.176;6.540;2023-02-23T00:33:35;7.60;99.90
52451;DHT22;38366;53.176;6.540;2023-02-23T00:36:11;7.60;99.90
52451;DHT22;38366;53.176;6.540;2023-02-23T00:38:38;7.60;99.90
52451;DHT22;38366;53.176;6.540;2023-02-23T00:41:10;7.60;99.90
52451;DHT22;38366;53.176;6.540;2023-02-23T00:43:37;7.60;99.90
52451;DHT22;38366;53.176;6.540;2023-02-23T00:46:04;7.60;99.90
52451;DHT22;38366;53.176;6.540;2023-02-23T00:48:31;7.60;99.90
52451;DHT22;38366;53.176;6.540;2023-02-23T00:50:58;7.60;99.90
52451;DHT22;38366;53.176;6.540;2023-02-23T00:53:24;7.50;99.90
52451;DHT22;38366;53.176;6.540;2023-02-23T00:55:52;7.50;99.90
52451;DHT22;38366;53.176;6.540;2023-02-23T00:58:18;7.50;99.90
52451;DHT22;38366;53.176;6.540;2023-02-23T01:00:44;7.50;99.90
52451;DHT22;38366;53.176;6.540;2023-02-23T01:03:09;7.50;99.90
52451;DHT22;38366;53.176;6.540;2023-02-23T01:05:35;7.50;99.90
52451;DHT22;38366;53.176;6.540;2023-02-23T01:08:01;7.60;99.90
52451;DHT22;38366;53.176;6.540;2023-02-23T01:10:27;7.60;99.90
52451;DHT22;38366;53.176;6.540;2023-02-23T01:12:53;7.60;99.90
52451;DHT22;38366;53.176;6.540;2023-02-23T01:15:20;7.60;99.90
52451;DHT22;38366;53.176;6.540;2023-02-23T01:17:46;7.60;99.90
52451;DHT22;38366;53.176;6.540;2023-02-23T01:20:14;7.70;99.90
52451;DHT22;38366;53.176;6.540;2023-02-23T01:22:48;7.70;99.90
52451;DHT22;38366;53.176;6.540;2023-02-23T01:25:15;7.70;99.90
52451;DHT22;38366;53.176;6.540;2023-02-23T01:27:41;7.60;99.90
52451;DHT22;38366;53.176;6.540;2023-02-23T01:30:10;7.70;99.90
52451;DHT22;38366;53.176;6.540;2023-02-23T01:32:37;7.70;99.90
52451;DHT22;38366;53.176;6.540;2023-02-23T01:35:04;7.60;99.90
52451;DHT22;38366;53.176;6.540;2023-02-23T01:37:34;7.60;99.90
52451;DHT22;38366;53.176;6.540;2023-02-23T01:40:00;7.60;99.90
52451;DHT22;38366;53.176;6.540;2023-02-23T01:42:28;7.60;99.90
52451;DHT22;38366;53.176;6.540;2023-02-23T01:47:41;7.60;99.90
52451;DHT22;38366;53.176;6.540;2023-02-23T01:50:07;7.60;99.90
52451;DHT22;38366;53.176;6.540;2023-02-23T01:52:36;7.60;99.90
52451;DHT22;38366;53.176;6.540;2023-02-23T01:55:02;7.60;99.90
52451;DHT22;38366;53.176;6.540;2023-02-23T01:57:31;7.80;99.90
52451;DHT22;38366;53.176;6.540;2023-02-23T01:59:56;7.70;99.90
52451;DHT22;38366;53.176;6.540;2023-02-23T02:02:25;7.60;99.90
52451;DHT22;38366;53.176;6.540;2023-02-23T02:04:59;7.70;99.90
52451;DHT22;38366;53.176;6.540;2023-02-23T02:07:28;7.60;99.90
52451;DHT22;38366;53.176;6.540;2023-02-23T02:09:56;7.60;99.90
52451;DHT22;38366;53.176;6.540;2023-02-23T02:12:38;7.70;99.90
52451;DHT22;38366;53.176;6.540;2023-02-23T02:15:04;7.70;99.90
52451;DHT22;38366;53.176;6.540;2023-02-23T02:18:03;7.70;99.90
52451;DHT22;38366;53.176;6.540;2023-02-23T02:20:47;7.70;99.90
52451;DHT22;38366;53.176;6.540;2023-02-23T02:37:12;7.70;99.90
52451;DHT22;38366;53.176;6.540;2023-02-23T02:51:03;7.70;99.90
52451;DHT22;38366;53.176;6.540;2023-02-23T02:54:00;7.70;99.90
52451;DHT22;38366;53.176;6.540;2023-02-23T02:56:36;7.70;99.90
52451;DHT22;38366;53.176;6.540;2023-02-23T02:59:25;7.70;99.90
52451;DHT22;38366;53.176;6.540;2023-02-23T03:02:18;7.70;99.90
52451;DHT22;38366;53.176;6.540;2023-02-23T03:05:12;7.70;99.90
52451;DHT22;38366;53.176;6.540;2023-02-23T03:08:10;7.60;99.90
52451;DHT22;38366;53.176;6.540;2023-02-23T03:11:09;7.60;99.90
52451;DHT22;38366;53.176;6.540;2023-02-23T03:14:21;7.60;99.90
52451;DHT22;38366;53.176;6.540;2023-02-23T03:26:20;7.60;99.90
52451;DHT22;38366;53.176;6.540;2023-02-23T03:29:17;7.60;99.90
52451;DHT22;38366;53.176;6.540;2023-02-23T03:32:10;7.60;99.90
52451;DHT22;38366;53.176;6.540;2023-02-23T03:38:29;7.60;99.90
52451;DHT22;38366;53.176;6.540;2023-02-23T03:41:15;7.60;99.90
52451;DHT22;38366;53.176;6.540;2023-02-23T03:44:07;7.60;99.90
52451;DHT22;38366;53.176;6.540;2023-02-23T03:46:54;7.60;99.90
52451;DHT22;38366;53.176;6.540;2023-02-23T03:49:41;7.60;99.90
52451;DHT22;38366;53.176;6.540;2023-02-23T03:52:38;7.60;99.90
52451;DHT22;38366;53.176;6.540;2023-02-23T03:55:28;7.60;99.90
52451;DHT22;38366;53.176;6.540;2023-02-23T03:58:17;7.60;99.90
52451;DHT22;38366;53.176;6.540;2023-02-23T04:01:05;7.50;99.90
52451;DHT22;38366;53.176;6.540;2023-02-23T04:03:51;7.50;99.90
52451;DHT22;38366;53.176;6.540;2023-02-23T04:06:40;7.60;99.90
52451;DHT22;38366;53.176;6.540;2023-02-23T04:09:26;7.50;99.90
52451;DHT22;38366;53.176;6.540;2023-02-23T04:12:19;7.50;99.90
52451;DHT22;38366;53.176;6.540;2023-02-23T04:15:36;7.50;99.90
52451;DHT22;38366;53.176;6.540;2023-02-23T04:18:04;7.50;99.90
52451;DHT22;38366;53.176;6.540;2023-02-23T04:20:30;7.50;99.90
52451;DHT22;38366;53.176;6.540;2023-02-23T04:22:56;7.50;99.90
52451;DHT22;38366;53.176;6.540;2023-02-23T04:25:21;7.50;99.90
52451;DHT22;38366;53.176;6.540;2023-02-23T04:27:50;7.50;99.90
52451;DHT22;38366;53.176;6.540;2023-02-23T04:30:16;7.50;99.90
52451;DHT22;38366;53.176;6.540;2023-02-23T04:32:42;7.50;99.90
52451;DHT22;38366;53.176;6.540;2023-02-23T04:35:11;7.50;99.90
52451;DHT22;38366;53.176;6.540;2023-02-23T04:37:38;7.50;99.90
52451;DHT22;38366;53.176;6.540;2023-02-23T04:40:05;7.40;99.90
52451;DHT22;38366;53.176;6.540;2023-02-23T04:42:31;7.50;99.90
52451;DHT22;38366;53.176;6.540;2023-02-23T04:44:56;7.50;99.90
52451;DHT22;38366;53.176;6.540;2023-02-23T04:47:24;7.50;99.90
52451;DHT22;38366;53.176;6.540;2023-02-23T04:49:49;7.50;99.90
52451;DHT22;38366;53.176;6.540;2023-02-23T04:52:15;7.50;99.90
52451;DHT22;38366;53.176;6.540;2023-02-23T04:54:41;7.50;99.90
52451;DHT22;38366;53.176;6.540;2023-02-23T04:57:08;7.50;99.90
52451;DHT22;38366;53.176;6.540;2023-02-23T04:59:34;7.50;99.90
52451;DHT22;38366;53.176;6.540;2023-02-23T05:02:00;7.50;99.90
52451;DHT22;38366;53.176;6.540;2023-02-23T05:04:26;7.50;99.90
52451;DHT22;38366;53.176;6.540;2023-02-23T05:06:51;7.50;99.90
52451;DHT22;38366;53.176;6.540;2023-02-23T05:09:17;7.50;99.90
52451;DHT22;38366;53.176;6.540;2023-02-23T05:11:43;7.50;99.90
52451;DHT22;38366;53.176;6.540;2023-02-23T05:14:09;7.40;99.90
52451;DHT22;38366;53.176;6.540;2023-02-23T05:16:37;7.50;99.90
52451;DHT22;38366;53.176;6.540;2023-02-23T05:19:03;7.40;99.90
52451;DHT22;38366;53.176;6.540;2023-02-23T05:21:29;7.40;99.90
52451;DHT22;38366;53.176;6.540;2023-02-23T05:23:54;7.40;99.90
52451;DHT22;38366;53.176;6.540;2023-02-23T05:26:22;7.40;99.90
52451;DHT22;38366;53.176;6.540;2023-02-23T05:28:47;7.40;99.90
52451;DHT22;38366;53.176;6.540;2023-02-23T05:31:14;7.40;99.90
52451;DHT22;38366;53.176;6.540;2023-02-23T05:33:39;7.30;99.90
52451;DHT22;38366;53.176;6.540;2023-02-23T05:36:13;7.40;99.90
52451;DHT22;38366;53.176;6.540;2023-02-23T05:38:41;7.40;99.90
52451;DHT22;38366;53.176;6.540;2023-02-23T05:41:10;7.40;99.90
52451;DHT22;38366;53.176;6.540;2023-02-23T05:43:35;7.40;99.90
52451;DHT22;38366;53.176;6.540;2023-02-23T05:46:09;7.30;99.90
52451;DHT22;38366;53.176;6.540;2023-02-23T05:48:35;7.40;99.90
52451;DHT22;38366;53.176;6.540;2023-02-23T05:51:06;7.30;99.90
52451;DHT22;38366;53.176;6.540;2023-02-23T05:53:32;7.40;99.90
52451;DHT22;38366;53.176;6.540;2023-02-23T05:55:57;7.40;99.90
52451;DHT22;38366;53.176;6.540;2023-02-23T05:58:23;7.40;99.90
52451;DHT22;38366;53.176;6.540;2023-02-23T06:00:49;7.30;99.90
52451;DHT22;38366;53.176;6.540;2023-02-23T06:03:14;7.40;99.90
52451;DHT22;38366;53.176;6.540;2023-02-23T06:05:40;7.40;99.90
52451;DHT22;38366;53.176;6.540;2023-02-23T06:08:07;7.40;99.90
52451;DHT22;38366;53.176;6.540;2023-02-23T06:10:33;7.30;99.90
52451;DHT22;38366;53.176;6.540;2023-02-23T06:12:59;7.40;99.90
52451;DHT22;38366;53.176;6.540;2023-02-23T06:15:24;7.40;99.90
52451;DHT22;38366;53.176;6.540;2023-02-23T06:17:51;7.30;99.90
52451;DHT22;38366;53.176;6.540;2023-02-23T06:20:18;7.40;99.90
52451;DHT22;38366;53.176;6.540;2023-02-23T06:22:43;7.40;99.90
52451;DHT22;38366;53.176;6.540;2023-02-23T06:25:09;7.40;99.90
52451;DHT22;38366;53.176;6.540;2023-02-23T06:27:38;7.30;99.90
52451;DHT22;38366;53.176;6.540;2023-02-23T06:30:05;7.40;99.90
52451;DHT22;38366;53.176;6.540;2023-02-23T06:32:31;7.30;99.90
52451;DHT22;38366;53.176;6.540;2023-02-23T06:34:57;7.40;99.90
52451;DHT22;38366;53.176;6.540;2023-02-23T06:37:22;7.30;99.90
52451;DHT22;38366;53.176;6.540;2023-02-23T06:39:48;7.30;99.90
52451;DHT22;38366;53.176;6.540;2023-02-23T06:42:15;7.40;99.90
52451;DHT22;38366;53.176;6.540;2023-02-23T06:44:41;7.40;99.90
52451;DHT22;38366;53.176;6.540;2023-02-23T06:47:06;7.40;99.90
52451;DHT22;38366;53.176;6.540;2023-02-23T06:49:32;7.40;99.90
52451;DHT22;38366;53.176;6.540;2023-02-23T06:51:58;7.40;99.90
52451;DHT22;38366;53.176;6.540;2023-02-23T06:54:24;7.40;99.90
52451;DHT22;38366;53.176;6.540;2023-02-23T06:56:50;7.30;99.90
52451;DHT22;38366;53.176;6.540;2023-02-23T06:59:17;7.30;99.90
52451;DHT22;38366;53.176;6.540;2023-02-23T07:01:43;7.30;99.90
52451;DHT22;38366;53.176;6.540;2023-02-23T07:04:10;7.30;99.90
52451;DHT22;38366;53.176;6.540;2023-02-23T07:06:36;7.30;99.90
52451;DHT22;38366;53.176;6.540;2023-02-23T07:09:03;7.30;99.90
52451;DHT22;38366;53.176;6.540;2023-02-23T07:11:28;7.20;99.90
52451;DHT22;38366;53.176;6.540;2023-02-23T07:13:57;7.20;99.90
52451;DHT22;38366;53.176;6.540;2023-02-23T07:16:23;7.20;99.90
52451;DHT22;38366;53.176;6.540;2023-02-23T07:18:49;7.20;99.90
52451;DHT22;38366;53.176;6.540;2023-02-23T07:21:15;7.30;99.90
52451;DHT22;38366;53.176;6.540;2023-02-23T07:23:41;7.20;99.90
52451;DHT22;38366;53.176;6.540;2023-02-23T07:26:07;7.20;99.90
52451;DHT22;38366;53.176;6.540;2023-02-23T07:28:34;7.20;99.90
52451;DHT22;38366;53.176;6.540;2023-02-23T07:30:59;7.20;99.90
52451;DHT22;38366;53.176;6.540;2023-02-23T07:33:25;7.20;99.90
52451;DHT22;38366;53.176;6.540;2023-02-23T07:35:51;7.30;99.90
52451;DHT22;38366;53.176;6.540;2023-02-23T07:38:17;7.20;99.90
52451;DHT22;38366;53.176;6.540;2023-02-23T07:40:43;7.20;99.90
52451;DHT22;38366;53.176;6.540;2023-02-23T07:43:09;7.20;99.90
52451;DHT22;38366;53.176;6.540;2023-02-23T07:45:35;7.20;99.90
52451;DHT22;38366;53.176;6.540;2023-02-23T07:48:01;7.20;99.90
52451;DHT22;38366;53.176;6.540;2023-02-23T07:50:27;7.20;99.90
52451;DHT22;38366;53.176;6.540;2023-02-23T07:52:52;7.20;99.90
52451;DHT22;38366;53.176;6.540;2023-02-23T07:55:18;7.20;99.90
52451;DHT22;38366;53.176;6.540;2023-02-23T07:57:44;7.20;99.90
52451;DHT22;38366;53.176;6.540;2023-02-23T08:00:10;7.20;99.90
52451;DHT22;38366;53.176;6.540;2023-02-23T08:02:36;7.30;99.90
52451;DHT22;38366;53.176;6.540;2023-02-23T08:05:02;7.30;99.90
52451;DHT22;38366;53.176;6.540;2023-02-23T08:07:30;7.30;99.90
52451;DHT22;38366;53.176;6.540;2023-02-23T08:09:56;7.30;99.90
52451;DHT22;38366;53.176;6.540;2023-02-23T08:12:21;7.30;99.90
52451;DHT22;38366;53.176;6.540;2023-02-23T08:14:47;7.30;99.90
52451;DHT22;38366;53.176;6.540;2023-02-23T08:17:13;7.30;99.90
52451;DHT22;38366;53.176;6.540;2023-02-23T08:19:38;7.30;99.90
52451;DHT22;38366;53.176;6.540;2023-02-23T08:22:05;7.30;99.90
52451;DHT22;38366;53.176;6.540;2023-02-23T08:24:30;7.30;99.90
52451;DHT22;38366;53.176;6.540;2023-02-23T08:27:00;7.30;99.90
52451;DHT22;38366;53.176;6.540;2023-02-23T08:29:26;7.30;99.90
52451;DHT22;38366;53.176;6.540;2023-02-23T08:31:52;7.30;99.90
52451;DHT22;38366;53.176;6.540;2023-02-23T08:34:18;7.30;99.90
52451;DHT22;38366;53.176;6.540;2023-02-23T08:36:45;7.30;99.90
52451;DHT22;38366;53.176;6.540;2023-02-23T08:39:11;7.30;99.90
52451;DHT22;38366;53.176;6.540;2023-02-23T08:41:37;7.30;99.90
52451;DHT22;38366;53.176;6.540;2023-02-23T08:44:03;7.30;99.90
52451;DHT22;38366;53.176;6.540;2023-02-23T08:46:29;7.30;99.90
52451;DHT22;38366;53.176;6.540;2023-02-23T08:48:55;7.30;99.90
52451;DHT22;38366;53.176;6.540;2023-02-23T08:51:21;7.30;99.90
52451;DHT22;38366;53.176;6.540;2023-02-23T08:53:47;7.30;99.90
52451;DHT22;38366;53.176;6.540;2023-02-23T08:56:13;7.30;99.90
52451;DHT22;38366;53.176;6.540;2023-02-23T08:58:40;7.30;99.90
52451;DHT22;38366;53.176;6.540;2023-02-23T09:01:06;7.30;99.90
52451;DHT22;38366;53.176;6.540;2023-02-23T09:03:33;7.30;99.90
52451;DHT22;38366;53.176;6.540;2023-02-23T09:06:08;7.40;99.90
52451;DHT22;38366;53.176;6.540;2023-02-23T09:08:34;7.40;99.90
52451;DHT22;38366;53.176;6.540;2023-02-23T09:11:00;7.40;99.90
52451;DHT22;38366;53.176;6.540;2023-02-23T09:13:26;7.40;99.90
52451;DHT22;38366;53.176;6.540;2023-02-23T09:15:52;7.40;99.90
52451;DHT22;38366;53.176;6.540;2023-02-23T09:18:18;7.40;99.90
52451;DHT22;38366;53.176;6.540;2023-02-23T09:20:44;7.40;99.90
52451;DHT22;38366;53.176;6.540;2023-02-23T09:23:11;7.40;99.90
52451;DHT22;38366;53.176;6.540;2023-02-23T09:25:41;7.40;99.90
52451;DHT22;38366;53.176;6.540;2023-02-23T09:28:14;7.50;99.90
52451;DHT22;38366;53.176;6.540;2023-02-23T09:30:42;7.50;99.90
52451;DHT22;38366;53.176;6.540;2023-02-23T09:33:09;7.50;99.90
52451;DHT22;38366;53.176;6.540;2023-02-23T09:35:35;7.60;99.90
52451;DHT22;38366;53.176;6.540;2023-02-23T09:38:03;7.60;99.90
52451;DHT22;38366;53.176;6.540;2023-02-23T09:43:25;7.70;99.90
52451;DHT22;38366;53.176;6.540;2023-02-23T09:46:26;7.70;99.90
52451;DHT22;38366;53.176;6.540;2023-02-23T09:48:56;7.70;99.90
52451;DHT22;38366;53.176;6.540;2023-02-23T09:51:25;7.80;99.90
52451;DHT22;38366;53.176;6.540;2023-02-23T09:53:56;7.90;99.90
52451;DHT22;38366;53.176;6.540;2023-02-23T09:56:35;7.90;99.90
52451;DHT22;38366;53.176;6.540;2023-02-23T09:59:03;7.90;99.90
52451;DHT22;38366;53.176;6.540;2023-02-23T10:04:12;8.00;99.90
52451;DHT22;38366;53.176;6.540;2023-02-23T10:06:47;8.00;99.90
52451;DHT22;38366;53.176;6.540;2023-02-23T10:09:17;8.10;99.90
52451;DHT22;38366;53.176;6.540;2023-02-23T10:21:07;8.30;99.90
52451;DHT22;38366;53.176;6.540;2023-02-23T10:23:55;8.40;99.90
52451;DHT22;38366;53.176;6.540;2023-02-23T10:26:28;8.30;99.90
52451;DHT22;38366;53.176;6.540;2023-02-23T10:28:58;8.40;99.90
52451;DHT22;38366;53.176;6.540;2023-02-23T10:31:40;8.40;99.90
52451;DHT22;38366;53.176;6.540;2023-02-23T10:34:12;8.40;99.90
52451;DHT22;38366;53.176;6.540;2023-02-23T10:36:49;8.40;99.90
52451;DHT22;38366;53.176;6.540;2023-02-23T10:39:16;8.40;99.90
52451;DHT22;38366;53.176;6.540;2023-02-23T10:41:42;8.40;99.90
52451;DHT22;38366;53.176;6.540;2023-02-23T10:44:22;8.40;99.90
52451;DHT22;38366;53.176;6.540;2023-02-23T10:47:06;8.40;99.90
52451;DHT22;38366;53.176;6.540;2023-02-23T10:49:47;8.40;99.90
52451;DHT22;38366;53.176;6.540;2023-02-23T10:52:20;8.40;99.90
52451;DHT22;38366;53.176;6.540;2023-02-23T10:54:48;8.40;99.90
52451;DHT22;38366;53.176;6.540;2023-02-23T11:02:43;8.40;99.90
52451;DHT22;38366;53.176;6.540;2023-02-23T11:05:32;8.40;99.90
52451;DHT22;38366;53.176;6.540;2023-02-23T11:10:34;8.50;99.90
52451;DHT22;38366;53.176;6.540;2023-02-23T11:13:00;8.50;99.90
52451;DHT22;38366;53.176;6.540;2023-02-23T11:15:30;8.40;99.90
52451;DHT22;38366;53.176;6.540;2023-02-23T11:18:02;8.50;99.90
52451;DHT22;38366;53.176;6.540;2023-02-23T11:20:39;8.50;99.90
52451;DHT22;38366;53.176;6.540;2023-02-23T11:23:35;8.50;99.90
52451;DHT22;38366;53.176;6.540;2023-02-23T11:26:06;8.60;99.90
52451;DHT22;38366;53.176;6.540;2023-02-23T11:28:50;8.60;99.90
52451;DHT22;38366;53.176;6.540;2023-02-23T11:31:19;8.50;99.90
52451;DHT22;38366;53.176;6.540;2023-02-23T11:33:46;8.50;99.90
52451;DHT22;38366;53.176;6.540;2023-02-23T11:36:17;8.50;99.90
52451;DHT22;38366;53.176;6.540;2023-02-23T11:41:26;8.60;99.90
52451;DHT22;38366;53.176;6.540;2023-02-23T11:43:57;8.60;99.90
52451;DHT22;38366;53.176;6.540;2023-02-23T11:46:23;8.60;99.90
52451;DHT22;38366;53.176;6.540;2023-02-23T11:49:02;8.50;99.90
52451;DHT22;38366;53.176;6.540;2023-02-23T11:51:32;8.60;99.90
52451;DHT22;38366;53.176;6.540;2023-02-23T11:53:59;8.60;99.90
52451;DHT22;38366;53.176;6.540;2023-02-23T11:56:27;8.60;99.90
52451;DHT22;38366;53.176;6.540;2023-02-23T11:58:56;8.70;99.90
52451;DHT22;38366;53.176;6.540;2023-02-23T12:04:00;8.60;99.90
52451;DHT22;38366;53.176;6.540;2023-02-23T12:06:40;8.60;99.90
52451;DHT22;38366;53.176;6.540;2023-02-23T12:09:25;8.60;99.90
52451;DHT22;38366;53.176;6.540;2023-02-23T12:12:18;8.60;99.90
52451;DHT22;38366;53.176;6.540;2023-02-23T12:15:05;8.60;99.90
52451;DHT22;38366;53.176;6.540;2023-02-23T12:17:52;8.60;99.90
52451;DHT22;38366;53.176;6.540;2023-02-23T12:20:31;8.50;99.90
52451;DHT22;38366;53.176;6.540;2023-02-23T12:23:08;8.50;99.90
52451;DHT22;38366;53.176;6.540;2023-02-23T12:28:36;8.50;99.90
52451;DHT22;38366;53.176;6.540;2023-02-23T12:34:03;8.50;99.90
52451;DHT22;38366;53.176;6.540;2023-02-23T12:36:44;8.50;99.90
52451;DHT22;38366;53.176;6.540;2023-02-23T12:39:16;8.50;99.90
52451;DHT22;38366;53.176;6.540;2023-02-23T12:41:54;8.40;99.90
52451;DHT22;38366;53.176;6.540;2023-02-23T12:44:33;8.40;99.90
52451;DHT22;38366;53.176;6.540;2023-02-23T12:47:07;8.40;99.90
52451;DHT22;38366;53.176;6.540;2023-02-23T12:49:58;8.40;99.90
52451;DHT22;38366;53.176;6.540;2023-02-23T12:52:35;8.50;99.90
52451;DHT22;38366;53.176;6.540;2023-02-23T12:55:02;8.50;99.90
52451;DHT22;38366;53.176;6.540;2023-02-23T12:57:36;8.60;99.90
52451;DHT22;38366;53.176;6.540;2023-02-23T13:08:54;8.50;99.90
52451;DHT22;38366;53.176;6.540;2023-02-23T13:14:13;8.40;99.90
52451;DHT22;38366;53.176;6.540;2023-02-23T13:16:49;8.40;99.90
52451;DHT22;38366;53.176;6.540;2023-02-23T13:19:24;8.20;99.90
52451;DHT22;38366;53.176;6.540;2023-02-23T13:22:00;7.90;99.90
52451;DHT22;38366;53.176;6.540;2023-02-23T13:24:35;7.90;99.90
52451;DHT22;38366;53.176;6.540;2023-02-23T13:29:38;7.80;99.90
52451;DHT22;38366;53.176;6.540;2023-02-23T13:32:10;7.80;99.90
52451;DHT22;38366;53.176;6.540;2023-02-23T13:34:43;7.80;99.90
52451;DHT22;38366;53.176;6.540;2023-02-23T13:37:13;7.70;99.90
52451;DHT22;38366;53.176;6.540;2023-02-23T13:40:51;7.60;99.90
52451;DHT22;38366;53.176;6.540;2023-02-23T13:43:00;7.60;99.90
52451;DHT22;38366;53.176;6.540;2023-02-23T13:51:38;7.50;99.90
52451;DHT22;38366;53.176;6.540;2023-02-23T13:56:58;7.40;99.90
52451;DHT22;38366;53.176;6.540;2023-02-23T13:59:28;7.40;99.90
52451;DHT22;38366;53.176;6.540;2023-02-23T14:01:55;7.30;99.90
52451;DHT22;38366;53.176;6.540;2023-02-23T14:07:04;7.20;99.90
52451;DHT22;38366;53.176;6.540;2023-02-23T14:10:06;7.20;99.90
52451;DHT22;38366;53.176;6.540;2023-02-23T14:12:41;7.20;99.90
52451;DHT22;38366;53.176;6.540;2023-02-23T14:17:55;7.20;99.90
52451;DHT22;38366;53.176;6.540;2023-02-23T14:20:55;7.30;99.90
52451;DHT22;38366;53.176;6.540;2023-02-23T14:25:52;7.20;99.90
52451;DHT22;38366;53.176;6.540;2023-02-23T14:28:35;7.10;99.90
52451;DHT22;38366;53.176;6.540;2023-02-23T14:41:49;7.20;99.90
52451;DHT22;38366;53.176;6.540;2023-02-23T14:44:27;7.20;99.90
52451;DHT22;38366;53.176;6.540;2023-02-23T14:47:11;7.30;99.90
52451;DHT22;38366;53.176;6.540;2023-02-23T14:50:02;7.30;99.90
52451;DHT22;38366;53.176;6.540;2023-02-23T14:52:32;7.30;99.90
52451;DHT22;38366;53.176;6.540;2023-02-23T14:57:40;7.10;99.90
52451;DHT22;38366;53.176;6.540;2023-02-23T15:03:04;7.10;99.90
52451;DHT22;38366;53.176;6.540;2023-02-23T15:05:42;7.10;99.90
52451;DHT22;38366;53.176;6.540;2023-02-23T15:08:12;7.00;99.90
52451;DHT22;38366;53.176;6.540;2023-02-23T15:10:42;7.00;99.90
52451;DHT22;38366;53.176;6.540;2023-02-23T15:13:41;6.90;99.90
52451;DHT22;38366;53.176;6.540;2023-02-23T15:16:10;6.90;99.90
52451;DHT22;38366;53.176;6.540;2023-02-23T15:18:39;7.00;99.90
52451;DHT22;38366;53.176;6.540;2023-02-23T15:21:18;6.90;99.90
52451;DHT22;38366;53.176;6.540;2023-02-23T15:23:48;7.00;99.90
52451;DHT22;38366;53.176;6.540;2023-02-23T15:26:16;7.00;99.90
52451;DHT22;38366;53.176;6.540;2023-02-23T15:28:42;7.00;99.90
52451;DHT22;38366;53.176;6.540;2023-02-23T15:31:10;7.20;99.90
52451;DHT22;38366;53.176;6.540;2023-02-23T15:33:37;7.00;99.90
52451;DHT22;38366;53.176;6.540;2023-02-23T15:36:11;7.10;99.90
52451;DHT22;38366;53.176;6.540;2023-02-23T15:38:45;7.10;99.90
52451;DHT22;38366;53.176;6.540;2023-02-23T15:41:32;7.10;99.90
52451;DHT22;38366;53.176;6.540;2023-02-23T15:44:17;7.00;99.90
52451;DHT22;38366;53.176;6.540;2023-02-23T15:46:54;7.10;99.90
52451;DHT22;38366;53.176;6.540;2023-02-23T15:49:21;7.10;99.90
52451;DHT22;38366;53.176;6.540;2023-02-23T15:51:51;7.20;99.90
52451;DHT22;38366;53.176;6.540;2023-02-23T15:54:27;7.10;99.90
52451;DHT22;38366;53.176;6.540;2023-02-23T15:56:56;7.10;99.90
52451;DHT22;38366;53.176;6.540;2023-02-23T15:59:49;7.10;99.90
52451;DHT22;38366;53.176;6.540;2023-02-23T16:02:19;7.10;99.90
52451;DHT22;38366;53.176;6.540;2023-02-23T16:04:47;7.00;99.90
52451;DHT22;38366;53.176;6.540;2023-02-23T16:07:15;7.00;99.90
52451;DHT22;38366;53.176;6.540;2023-02-23T16:10:23;7.00;99.90
52451;DHT22;38366;53.176;6.540;2023-02-23T16:12:53;7.00;99.90
52451;DHT22;38366;53.176;6.540;2023-02-23T16:15:27;7.00;99.90
52451;DHT22;38366;53.176;6.540;2023-02-23T16:18:17;6.90;99.90
52451;DHT22;38366;53.176;6.540;2023-02-23T16:20:54;6.90;99.90
52451;DHT22;38366;53.176;6.540;2023-02-23T16:23:30;6.90;99.90
52451;DHT22;38366;53.176;6.540;2023-02-23T16:25:59;6.90;99.90
52451;DHT22;38366;53.176;6.540;2023-02-23T16:28:31;6.80;99.90
52451;DHT22;38366;53.176;6.540;2023-02-23T16:31:01;6.80;99.90
52451;DHT22;38366;53.176;6.540;2023-02-23T16:33:44;6.80;99.90
52451;DHT22;38366;53.176;6.540;2023-02-23T16:36:32;6.80;99.90
52451;DHT22;38366;53.176;6.540;2023-02-23T16:39:00;6.80;99.90
52451;DHT22;38366;53.176;6.540;2023-02-23T16:41:31;6.80;99.90
52451;DHT22;38366;53.176;6.540;2023-02-23T16:44:05;6.70;99.90
52451;DHT22;38366;53.176;6.540;2023-02-23T16:47:23;6.70;99.90
52451;DHT22;38366;53.176;6.540;2023-02-23T16:49:37;6.70;99.90
52451;DHT22;38366;53.176;6.540;2023-02-23T16:52:11;6.70;99.90
52451;DHT22;38366;53.176;6.540;2023-02-23T16:54:39;6.70;99.90
52451;DHT22;38366;53.176;6.540;2023-02-23T16:57:16;6.70;99.90
52451;DHT22;38366;53.176;6.540;2023-02-23T16:59:42;6.70;99.90
52451;DHT22;38366;53.176;6.540;2023-02-23T17:02:10;6.60;99.90
52451;DHT22;38366;53.176;6.540;2023-02-23T17:04:38;6.60;99.90
52451;DHT22;38366;53.176;6.540;2023-02-23T17:07:03;6.60;99.90
52451;DHT22;38366;53.176;6.540;2023-02-23T17:09:29;6.60;99.90
52451;DHT22;38366;53.176;6.540;2023-02-23T17:11:55;6.50;99.90
52451;DHT22;38366;53.176;6.540;2023-02-23T17:14:25;6.70;99.90
52451;DHT22;38366;53.176;6.540;2023-02-23T17:16:56;6.50;99.90
52451;DHT22;38366;53.176;6.540;2023-02-23T17:19:21;6.50;99.90
52451;DHT22;38366;53.176;6.540;2023-02-23T17:21:49;6.50;99.90
52451;DHT22;38366;53.176;6.540;2023-02-23T17:24:15;6.40;99.90
52451;DHT22;38366;53.176;6.540;2023-02-23T17:26:41;6.30;99.90
52451;DHT22;38366;53.176;6.540;2023-02-23T17:29:07;6.30;99.90
52451;DHT22;38366;53.176;6.540;2023-02-23T17:31:33;6.20;99.90
52451;DHT22;38366;53.176;6.540;2023-02-23T17:33:58;6.20;99.90
52451;DHT22;38366;53.176;6.540;2023-02-23T17:36:24;6.10;99.90
52451;DHT22;38366;53.176;6.540;2023-02-23T17:38:52;6.00;99.90
52451;DHT22;38366;53.176;6.540;2023-02-23T17:41:23;6.00;99.90
52451;DHT22;38366;53.176;6.540;2023-02-23T17:43:50;5.90;99.90
52451;DHT22;38366;53.176;6.540;2023-02-23T17:46:15;5.90;99.90
52451;DHT22;38366;53.176;6.540;2023-02-23T17:48:41;5.80;99.90
52451;DHT22;38366;53.176;6.540;2023-02-23T17:51:10;5.90;99.90
52451;DHT22;38366;53.176;6.540;2023-02-23T17:53:38;5.70;99.90
52451;DHT22;38366;53.176;6.540;2023-02-23T17:56:04;5.60;99.90
52451;DHT22;38366;53.176;6.540;2023-02-23T17:58:32;5.60;99.90
52451;DHT22;38366;53.176;6.540;2023-02-23T18:01:00;5.50;99.90
52451;DHT22;38366;53.176;6.540;2023-02-23T18:03:27;5.50;99.90
52451;DHT22;38366;53.176;6.540;2023-02-23T18:06:08;5.50;99.90
52451;DHT22;38366;53.176;6.540;2023-02-23T18:08:35;5.40;99.90
52451;DHT22;38366;53.176;6.540;2023-02-23T18:11:01;5.30;99.90
52451;DHT22;38366;53.176;6.540;2023-02-23T18:13:27;5.30;99.90
52451;DHT22;38366;53.176;6.540;2023-02-23T18:15:58;5.30;99.90
52451;DHT22;38366;53.176;6.540;2023-02-23T18:18:24;5.50;99.90